sensor_id;sensor_type;location;lat;lon;timestamp;temperature;humidity
8067;DHT22;4076;48.076;9.118;2023-03-31T00:00:35;6.00;99.90
8067;DHT22;4076;48.076;9.118;2023-03-31T00:03:00;6.10;99.90
8067;DHT22;4076;48.076;9.118;2023-03-31T00:05:27;6.10;99.90
8067;DHT22;4076;48.076;9.118;2023-03-31T00:07:54;6.10;99.90
8067;DHT22;4076;48.076;9.118;2023-03-31T00:10:26;6.10;99.90
8067;DHT22;4076;48.076;9.118;2023-03-31T00:12:51;6.00;99.90
8067;DHT22;4076;48.076;9.118;2023-03-31T00:15:19;6.00;99.90
8067;DHT22;4076;48.076;9.118;2023-03-31T00:17:44;6.00;99.90
8067;DHT22;4076;48.076;9.118;2023-03-31T00:20:11;6.10;99.90
8067;DHT22;4076;48.076;9.118;2023-03-31T00:22:38;6.10;99.90
8067;DHT22;4076;48.076;9.118;2023-03-31T00:25:08;6.10;99.90
8067;DHT22;4076;48.076;9.118;2023-03-31T00:27:34;6.20;99.90
8067;DHT22;4076;48.076;9.118;2023-03-31T00:30:00;6.20;99.90
8067;DHT22;4076;48.076;9.118;2023-03-31T00:32:26;6.20;99.90
8067;DHT22;4076;48.076;9.118;2023-03-31T00:34:51;6.20;99.90
8067;DHT22;4076;48.076;9.118;2023-03-31T00:37:17;6.20;99.90
8067;DHT22;4076;48.076;9.118;2023-03-31T00:39:43;6.20;99.90
8067;DHT22;4076;48.076;9.118;2023-03-31T00:42:10;6.30;99.90
8067;DHT22;4076;48.076;9.118;2023-03-31T00:47:53;6.30;99.90
8067;DHT22;4076;48.076;9.118;2023-03-31T00:50:26;6.30;99.90
8067;DHT22;4076;48.076;9.118;2023-03-31T00:52:59;6.40;99.90
8067;DHT22;4076;48.076;9.118;2023-03-31T00:55:32;6.40;99.90
8067;DHT22;4076;48.076;9.118;2023-03-31T00:57:59;6.40;99.90
8067;DHT22;4076;48.076;9.118;2023-03-31T01:00:26;6.50;99.90
8067;DHT22;4076;48.076;9.118;2023-03-31T01:02:57;6.50;99.90
8067;DHT22;4076;48.076;9.118;2023-03-31T01:05:34;6.50;99.90
8067;DHT22;4076;48.076;9.118;2023-03-31T01:08:01;6.50;99.90
8067;DHT22;4076;48.076;9.118;2023-03-31T01:10:33;6.60;99.90
8067;DHT22;4076;48.076;9.118;2023-03-31T01:13:07;6.60;99.90
8067;DHT22;4076;48.076;9.118;2023-03-31T01:15:33;6.60;99.90
8067;DHT22;4076;48.076;9.118;2023-03-31T01:17:58;6.60;99.90
8067;DHT22;4076;48.076;9.118;2023-03-31T01:41:48;6.70;99.90
8067;DHT22;4076;48.076;9.118;2023-03-31T01:47:27;6.70;99.90
8067;DHT22;4076;48.076;9.118;2023-03-31T01:53:06;6.80;99.90
8067;DHT22;4076;48.076;9.118;2023-03-31T01:55:36;6.80;99.90
8067;DHT22;4076;48.076;9.118;2023-03-31T01:58:39;6.80;99.90
8067;DHT22;4076;48.076;9.118;2023-03-31T02:04:01;6.80;99.90
8067;DHT22;4076;48.076;9.118;2023-03-31T02:06:32;6.80;99.90
8067;DHT22;4076;48.076;9.118;2023-03-31T02:09:05;6.80;99.90
8067;DHT22;4076;48.076;9.118;2023-03-31T02:11:36;6.70;99.90
8067;DHT22;4076;48.076;9.118;2023-03-31T02:14:04;6.70;99.90
8067;DHT22;4076;48.076;9.118;2023-03-31T02:16:34;6.70;99.90
8067;DHT22;4076;48.076;9.118;2023-03-31T02:19:03;6.70;99.90
8067;DHT22;4076;48.076;9.118;2023-03-31T02:21:31;6.80;99.90
8067;DHT22;4076;48.076;9.118;2023-03-31T02:24:01;6.80;99.90
8067;DHT22;4076;48.076;9.118;2023-03-31T02:26:35;6.80;99.90
8067;DHT22;4076;48.076;9.118;2023-03-31T02:29:02;6.80;99.90
8067;DHT22;4076;48.076;9.118;2023-03-31T02:31:43;6.80;99.90
8067;DHT22;4076;48.076;9.118;2023-03-31T02:34:10;6.80;99.90
8067;DHT22;4076;48.076;9.118;2023-03-31T02:36:36;6.80;99.90
8067;DHT22;4076;48.076;9.118;2023-03-31T02:39:05;6.80;99.90
8067;DHT22;4076;48.076;9.118;2023-03-31T02:41:32;6.80;99.90
8067;DHT22;4076;48.076;9.118;2023-03-31T02:43:58;6.70;99.90
8067;DHT22;4076;48.076;9.118;2023-03-31T02:46:25;6.70;99.90
8067;DHT22;4076;48.076;9.118;2023-03-31T02:48:55;6.70;99.90
8067;DHT22;4076;48.076;9.118;2023-03-31T03:06:10;6.90;99.90
8067;DHT22;4076;48.076;9.118;2023-03-31T03:14:12;6.80;99.90
8067;DHT22;4076;48.076;9.118;2023-03-31T03:16:47;6.70;99.90
8067;DHT22;4076;48.076;9.118;2023-03-31T03:19:21;6.70;99.90
8067;DHT22;4076;48.076;9.118;2023-03-31T03:21:47;6.70;99.90
8067;DHT22;4076;48.076;9.118;2023-03-31T03:24:14;6.60;99.90
8067;DHT22;4076;48.076;9.118;2023-03-31T03:26:41;6.60;99.90
8067;DHT22;4076;48.076;9.118;2023-03-31T03:29:09;6.60;99.90
8067;DHT22;4076;48.076;9.118;2023-03-31T03:31:37;6.60;99.90
8067;DHT22;4076;48.076;9.118;2023-03-31T03:34:03;6.50;99.90
8067;DHT22;4076;48.076;9.118;2023-03-31T03:36:29;6.40;99.90
8067;DHT22;4076;48.076;9.118;2023-03-31T03:38:54;6.40;99.90
8067;DHT22;4076;48.076;9.118;2023-03-31T03:41:20;6.30;99.90
8067;DHT22;4076;48.076;9.118;2023-03-31T03:43:45;6.20;99.90
8067;DHT22;4076;48.076;9.118;2023-03-31T03:46:11;6.20;99.90
8067;DHT22;4076;48.076;9.118;2023-03-31T03:48:36;6.10;99.90
8067;DHT22;4076;48.076;9.118;2023-03-31T03:51:02;6.00;99.90
8067;DHT22;4076;48.076;9.118;2023-03-31T03:53:28;5.90;99.90
8067;DHT22;4076;48.076;9.118;2023-03-31T03:55:53;5.90;99.90
8067;DHT22;4076;48.076;9.118;2023-03-31T03:58:19;5.80;99.90
8067;DHT22;4076;48.076;9.118;2023-03-31T04:00:45;5.70;99.90
8067;DHT22;4076;48.076;9.118;2023-03-31T04:03:12;5.70;99.90
8067;DHT22;4076;48.076;9.118;2023-03-31T04:05:38;5.60;99.90
8067;DHT22;4076;48.076;9.118;2023-03-31T04:08:03;5.50;99.90
8067;DHT22;4076;48.076;9.118;2023-03-31T04:10:30;5.40;99.90
8067;DHT22;4076;48.076;9.118;2023-03-31T04:12:56;5.50;99.90
8067;DHT22;4076;48.076;9.118;2023-03-31T04:15:21;5.50;99.90
8067;DHT22;4076;48.076;9.118;2023-03-31T04:17:47;5.60;99.90
8067;DHT22;4076;48.076;9.118;2023-03-31T04:20:15;5.60;99.90
8067;DHT22;4076;48.076;9.118;2023-03-31T04:22:41;5.60;99.90
8067;DHT22;4076;48.076;9.118;2023-03-31T04:25:09;5.60;99.90
8067;DHT22;4076;48.076;9.118;2023-03-31T04:27:40;5.60;99.90
8067;DHT22;4076;48.076;9.118;2023-03-31T04:30:12;5.60;99.90
8067;DHT22;4076;48.076;9.118;2023-03-31T04:32:38;5.60;99.90
8067;DHT22;4076;48.076;9.118;2023-03-31T04:35:04;5.60;99.90
8067;DHT22;4076;48.076;9.118;2023-03-31T04:37:31;5.70;99.90
8067;DHT22;4076;48.076;9.118;2023-03-31T04:40:02;5.70;99.90
8067;DHT22;4076;48.076;9.118;2023-03-31T04:42:34;5.70;99.90
8067;DHT22;4076;48.076;9.118;2023-03-31T04:45:00;5.80;99.90
8067;DHT22;4076;48.076;9.118;2023-03-31T04:47:26;5.80;99.90
8067;DHT22;4076;48.076;9.118;2023-03-31T04:49:51;5.80;99.90
8067;DHT22;4076;48.076;9.118;2023-03-31T04:52:17;5.80;99.90
8067;DHT22;4076;48.076;9.118;2023-03-31T04:54:43;5.90;99.90
8067;DHT22;4076;48.076;9.118;2023-03-31T04:57:08;5.90;99.90
8067;DHT22;4076;48.076;9.118;2023-03-31T04:59:34;5.90;99.90
8067;DHT22;4076;48.076;9.118;2023-03-31T05:01:59;5.90;99.90
8067;DHT22;4076;48.076;9.118;2023-03-31T05:04:25;6.00;99.90
8067;DHT22;4076;48.076;9.118;2023-03-31T05:06:50;6.00;99.90
8067;DHT22;4076;48.076;9.118;2023-03-31T05:09:16;6.00;99.90
8067;DHT22;4076;48.076;9.118;2023-03-31T05:11:42;6.00;99.90
8067;DHT22;4076;48.076;9.118;2023-03-31T05:14:07;6.10;99.90
8067;DHT22;4076;48.076;9.118;2023-03-31T05:16:33;6.10;99.90
8067;DHT22;4076;48.076;9.118;2023-03-31T05:18:59;6.10;99.90
8067;DHT22;4076;48.076;9.118;2023-03-31T05:21:24;6.10;99.90
8067;DHT22;4076;48.076;9.118;2023-03-31T05:23:51;6.20;99.90
8067;DHT22;4076;48.076;9.118;2023-03-31T05:26:17;6.20;99.90
8067;DHT22;4076;48.076;9.118;2023-03-31T05:28:43;6.20;99.90
8067;DHT22;4076;48.076;9.118;2023-03-31T05:31:10;6.30;99.90
8067;DHT22;4076;48.076;9.118;2023-03-31T05:33:37;6.30;99.90
8067;DHT22;4076;48.076;9.118;2023-03-31T05:36:15;6.40;99.90
8067;DHT22;4076;48.076;9.118;2023-03-31T05:38:41;6.40;99.90
8067;DHT22;4076;48.076;9.118;2023-03-31T05:41:08;6.40;99.90
8067;DHT22;4076;48.076;9.118;2023-03-31T05:43:36;6.50;99.90
8067;DHT22;4076;48.076;9.118;2023-03-31T05:46:01;6.50;99.90
8067;DHT22;4076;48.076;9.118;2023-03-31T05:48:27;6.50;99.90
8067;DHT22;4076;48.076;9.118;2023-03-31T05:50:57;6.50;99.90
8067;DHT22;4076;48.076;9.118;2023-03-31T05:53:23;6.50;99.90
8067;DHT22;4076;48.076;9.118;2023-03-31T05:55:49;6.50;99.90
8067;DHT22;4076;48.076;9.118;2023-03-31T05:58:14;6.60;99.90
8067;DHT22;4076;48.076;9.118;2023-03-31T06:00:40;6.60;99.90
8067;DHT22;4076;48.076;9.118;2023-03-31T06:03:06;6.60;99.90
8067;DHT22;4076;48.076;9.118;2023-03-31T06:05:33;6.60;99.90
8067;DHT22;4076;48.076;9.118;2023-03-31T06:07:59;6.60;99.90
8067;DHT22;4076;48.076;9.118;2023-03-31T06:10:24;6.60;99.90
8067;DHT22;4076;48.076;9.118;2023-03-31T06:12:50;6.60;99.90
8067;DHT22;4076;48.076;9.118;2023-03-31T06:15:16;6.70;99.90
8067;DHT22;4076;48.076;9.118;2023-03-31T06:17:41;6.70;99.90
8067;DHT22;4076;48.076;9.118;2023-03-31T06:20:08;6.70;99.90
8067;DHT22;4076;48.076;9.118;2023-03-31T06:22:33;6.70;99.90
8067;DHT22;4076;48.076;9.118;2023-03-31T06:24:59;6.70;99.90
8067;DHT22;4076;48.076;9.118;2023-03-31T06:27:25;6.80;99.90
8067;DHT22;4076;48.076;9.118;2023-03-31T06:29:50;6.80;99.90
8067;DHT22;4076;48.076;9.118;2023-03-31T06:32:16;6.80;99.90
8067;DHT22;4076;48.076;9.118;2023-03-31T06:34:41;6.80;99.90
8067;DHT22;4076;48.076;9.118;2023-03-31T06:37:07;7.00;99.90
8067;DHT22;4076;48.076;9.118;2023-03-31T06:39:32;7.20;99.90
8067;DHT22;4076;48.076;9.118;2023-03-31T06:41:58;7.40;99.90
8067;DHT22;4076;48.076;9.118;2023-03-31T06:44:23;7.60;99.90
8067;DHT22;4076;48.076;9.118;2023-03-31T06:46:49;7.70;99.90
8067;DHT22;4076;48.076;9.118;2023-03-31T06:49:15;7.80;99.90
8067;DHT22;4076;48.076;9.118;2023-03-31T06:51:40;7.90;99.90
8067;DHT22;4076;48.076;9.118;2023-03-31T06:54:06;8.10;99.90
8067;DHT22;4076;48.076;9.118;2023-03-31T06:56:32;8.70;99.90
8067;DHT22;4076;48.076;9.118;2023-03-31T06:58:57;10.20;99.90
8067;DHT22;4076;48.076;9.118;2023-03-31T07:01:23;11.60;99.90
8067;DHT22;4076;48.076;9.118;2023-03-31T07:03:48;13.10;99.90
8067;DHT22;4076;48.076;9.118;2023-03-31T07:06:14;14.30;99.90
8067;DHT22;4076;48.076;9.118;2023-03-31T07:08:40;14.10;99.90
8067;DHT22;4076;48.076;9.118;2023-03-31T07:11:05;13.50;99.90
8067;DHT22;4076;48.076;9.118;2023-03-31T07:13:31;12.80;99.90
8067;DHT22;4076;48.076;9.118;2023-03-31T07:15:57;12.00;99.90
8067;DHT22;4076;48.076;9.118;2023-03-31T07:18:23;11.50;99.90
8067;DHT22;4076;48.076;9.118;2023-03-31T07:20:56;11.00;99.90
8067;DHT22;4076;48.076;9.118;2023-03-31T07:23:22;10.60;99.90
8067;DHT22;4076;48.076;9.118;2023-03-31T07:25:48;10.20;99.90
8067;DHT22;4076;48.076;9.118;2023-03-31T07:28:13;10.00;99.90
8067;DHT22;4076;48.076;9.118;2023-03-31T07:30:39;9.90;99.90
8067;DHT22;4076;48.076;9.118;2023-03-31T07:33:05;9.90;99.90
8067;DHT22;4076;48.076;9.118;2023-03-31T07:35:31;10.00;99.90
8067;DHT22;4076;48.076;9.118;2023-03-31T07:37:57;10.10;99.90
8067;DHT22;4076;48.076;9.118;2023-03-31T07:40:26;10.20;99.90
8067;DHT22;4076;48.076;9.118;2023-03-31T07:42:52;10.20;99.90
8067;DHT22;4076;48.076;9.118;2023-03-31T07:45:20;10.20;99.90
8067;DHT22;4076;48.076;9.118;2023-03-31T07:47:46;10.00;99.90
8067;DHT22;4076;48.076;9.118;2023-03-31T07:50:14;9.90;99.90
8067;DHT22;4076;48.076;9.118;2023-03-31T07:52:40;9.90;99.90
8067;DHT22;4076;48.076;9.118;2023-03-31T07:55:06;9.80;99.90
8067;DHT22;4076;48.076;9.118;2023-03-31T07:57:33;10.00;99.90
8067;DHT22;4076;48.076;9.118;2023-03-31T07:59:59;10.30;99.90
8067;DHT22;4076;48.076;9.118;2023-03-31T08:02:25;11.90;99.90
8067;DHT22;4076;48.076;9.118;2023-03-31T08:04:50;15.90;99.90
8067;DHT22;4076;48.076;9.118;2023-03-31T08:07:16;20.30;99.90
8067;DHT22;4076;48.076;9.118;2023-03-31T08:09:44;24.20;59.70
8067;DHT22;4076;48.076;9.118;2023-03-31T08:12:10;27.00;48.20
8067;DHT22;4076;48.076;9.118;2023-03-31T08:14:36;29.10;45.60
8067;DHT22;4076;48.076;9.118;2023-03-31T08:17:02;30.80;46.70
8067;DHT22;4076;48.076;9.118;2023-03-31T08:24:21;34.30;45.90
8067;DHT22;4076;48.076;9.118;2023-03-31T08:26:47;33.70;45.60
8067;DHT22;4076;48.076;9.118;2023-03-31T08:29:13;31.80;40.60
8067;DHT22;4076;48.076;9.118;2023-03-31T08:31:38;29.10;36.20
8067;DHT22;4076;48.076;9.118;2023-03-31T08:34:04;26.80;34.50
8067;DHT22;4076;48.076;9.118;2023-03-31T08:36:31;24.70;36.50
8067;DHT22;4076;48.076;9.118;2023-03-31T08:38:57;24.50;39.50
8067;DHT22;4076;48.076;9.118;2023-03-31T08:41:44;26.70;39.00
8067;DHT22;4076;48.076;9.118;2023-03-31T08:44:23;29.70;36.40
8067;DHT22;4076;48.076;9.118;2023-03-31T08:46:52;33.00;51.70
8067;DHT22;4076;48.076;9.118;2023-03-31T08:49:20;34.80;40.80
8067;DHT22;4076;48.076;9.118;2023-03-31T08:52:04;36.10;39.40
8067;DHT22;4076;48.076;9.118;2023-03-31T08:54:37;37.30;40.10
8067;DHT22;4076;48.076;9.118;2023-03-31T08:57:11;38.00;38.60
8067;DHT22;4076;48.076;9.118;2023-03-31T08:59:40;38.30;38.20
8067;DHT22;4076;48.076;9.118;2023-03-31T09:02:33;38.90;37.50
8067;DHT22;4076;48.076;9.118;2023-03-31T09:16:20;37.80;35.20
8067;DHT22;4076;48.076;9.118;2023-03-31T09:18:46;37.70;34.60
8067;DHT22;4076;48.076;9.118;2023-03-31T09:24:17;37.10;33.90
8067;DHT22;4076;48.076;9.118;2023-03-31T09:26:54;35.20;33.20
8067;DHT22;4076;48.076;9.118;2023-03-31T09:32:17;30.40;40.00
8067;DHT22;4076;48.076;9.118;2023-03-31T09:34:45;28.50;30.10
8067;DHT22;4076;48.076;9.118;2023-03-31T09:37:11;26.80;30.20
8067;DHT22;4076;48.076;9.118;2023-03-31T09:39:38;24.70;30.90
8067;DHT22;4076;48.076;9.118;2023-03-31T09:42:04;24.30;33.40
8067;DHT22;4076;48.076;9.118;2023-03-31T09:47:04;22.40;34.80
8067;DHT22;4076;48.076;9.118;2023-03-31T09:49:33;23.50;35.70
8067;DHT22;4076;48.076;9.118;2023-03-31T09:52:04;24.30;33.70
8067;DHT22;4076;48.076;9.118;2023-03-31T09:54:34;25.40;33.30
8067;DHT22;4076;48.076;9.118;2023-03-31T09:57:01;27.20;31.80
8067;DHT22;4076;48.076;9.118;2023-03-31T09:59:34;28.90;29.80
8067;DHT22;4076;48.076;9.118;2023-03-31T10:02:16;28.90;28.80
8067;DHT22;4076;48.076;9.118;2023-03-31T10:04:45;28.10;29.00
8067;DHT22;4076;48.076;9.118;2023-03-31T10:07:11;26.80;29.40
8067;DHT22;4076;48.076;9.118;2023-03-31T10:09:38;25.30;31.10
8067;DHT22;4076;48.076;9.118;2023-03-31T10:12:06;24.10;31.60
8067;DHT22;4076;48.076;9.118;2023-03-31T10:14:40;22.60;32.60
8067;DHT22;4076;48.076;9.118;2023-03-31T10:17:14;21.30;33.50
8067;DHT22;4076;48.076;9.118;2023-03-31T10:19:47;20.20;34.40
8067;DHT22;4076;48.076;9.118;2023-03-31T10:22:17;19.40;35.70
8067;DHT22;4076;48.076;9.118;2023-03-31T10:24:51;19.40;36.80
8067;DHT22;4076;48.076;9.118;2023-03-31T10:27:28;20.00;38.00
8067;DHT22;4076;48.076;9.118;2023-03-31T10:30:08;20.40;37.00
8067;DHT22;4076;48.076;9.118;2023-03-31T10:32:41;21.10;37.60
8067;DHT22;4076;48.076;9.118;2023-03-31T10:35:21;21.60;36.40
8067;DHT22;4076;48.076;9.118;2023-03-31T10:37:49;21.80;34.70
8067;DHT22;4076;48.076;9.118;2023-03-31T10:40:25;21.70;34.80
8067;DHT22;4076;48.076;9.118;2023-03-31T10:43:15;21.80;35.60
8067;DHT22;4076;48.076;9.118;2023-03-31T10:45:47;21.70;34.90
8067;DHT22;4076;48.076;9.118;2023-03-31T10:48:28;21.50;34.70
8067;DHT22;4076;48.076;9.118;2023-03-31T10:53:39;21.20;34.90
8067;DHT22;4076;48.076;9.118;2023-03-31T11:21:26;19.90;35.10
8067;DHT22;4076;48.076;9.118;2023-03-31T11:29:59;20.00;35.30
8067;DHT22;4076;48.076;9.118;2023-03-31T11:32:52;20.10;35.30
8067;DHT22;4076;48.076;9.118;2023-03-31T11:38:18;20.30;36.40
8067;DHT22;4076;48.076;9.118;2023-03-31T11:44:13;20.00;35.80
8067;DHT22;4076;48.076;9.118;2023-03-31T11:46:47;19.80;35.90
8067;DHT22;4076;48.076;9.118;2023-03-31T11:52:02;19.70;36.80
8067;DHT22;4076;48.076;9.118;2023-03-31T11:54:50;19.50;36.10
8067;DHT22;4076;48.076;9.118;2023-03-31T11:57:32;19.10;34.80
8067;DHT22;4076;48.076;9.118;2023-03-31T12:00:31;18.60;35.70
8067;DHT22;4076;48.076;9.118;2023-03-31T12:05:45;17.30;38.90
8067;DHT22;4076;48.076;9.118;2023-03-31T12:10:49;16.40;43.50
8067;DHT22;4076;48.076;9.118;2023-03-31T12:13:51;16.50;44.70
8067;DHT22;4076;48.076;9.118;2023-03-31T12:16:34;16.80;44.90
8067;DHT22;4076;48.076;9.118;2023-03-31T12:19:20;17.10;45.10
8067;DHT22;4076;48.076;9.118;2023-03-31T12:21:52;17.20;44.40
8067;DHT22;4076;48.076;9.118;2023-03-31T12:24:19;17.30;44.60
8067;DHT22;4076;48.076;9.118;2023-03-31T12:29:32;17.30;43.10
8067;DHT22;4076;48.076;9.118;2023-03-31T12:32:02;17.30;43.40
8067;DHT22;4076;48.076;9.118;2023-03-31T12:34:30;17.50;43.30
8067;DHT22;4076;48.076;9.118;2023-03-31T12:40:13;17.80;42.20
8067;DHT22;4076;48.076;9.118;2023-03-31T12:45:28;17.10;43.80
8067;DHT22;4076;48.076;9.118;2023-03-31T12:48:17;16.50;44.30
8067;DHT22;4076;48.076;9.118;2023-03-31T12:51:09;16.00;44.60
8067;DHT22;4076;48.076;9.118;2023-03-31T12:56:27;15.50;45.10
8067;DHT22;4076;48.076;9.118;2023-03-31T12:59:30;15.30;44.80
8067;DHT22;4076;48.076;9.118;2023-03-31T13:04:34;14.90;43.50
8067;DHT22;4076;48.076;9.118;2023-03-31T13:07:02;14.60;43.00
8067;DHT22;4076;48.076;9.118;2023-03-31T13:12:16;14.50;43.10
8067;DHT22;4076;48.076;9.118;2023-03-31T13:14:44;14.60;43.60
8067;DHT22;4076;48.076;9.118;2023-03-31T13:17:32;14.70;43.20
8067;DHT22;4076;48.076;9.118;2023-03-31T13:20:40;14.80;42.80
8067;DHT22;4076;48.076;9.118;2023-03-31T13:23:21;15.20;42.70
8067;DHT22;4076;48.076;9.118;2023-03-31T13:25:56;15.70;42.70
8067;DHT22;4076;48.076;9.118;2023-03-31T13:33:14;15.90;40.70
8067;DHT22;4076;48.076;9.118;2023-03-31T13:35:47;15.80;40.80
8067;DHT22;4076;48.076;9.118;2023-03-31T13:41:41;15.30;40.10
8067;DHT22;4076;48.076;9.118;2023-03-31T13:44:39;15.10;41.30
8067;DHT22;4076;48.076;9.118;2023-03-31T13:47:21;15.20;41.70
8067;DHT22;4076;48.076;9.118;2023-03-31T14:04:32;15.20;41.40
8067;DHT22;4076;48.076;9.118;2023-03-31T14:07:14;15.10;42.00
8067;DHT22;4076;48.076;9.118;2023-03-31T14:09:41;14.90;42.30
8067;DHT22;4076;48.076;9.118;2023-03-31T14:12:34;14.80;42.10
8067;DHT22;4076;48.076;9.118;2023-03-31T14:15:00;14.70;42.30
8067;DHT22;4076;48.076;9.118;2023-03-31T14:17:34;14.70;42.60
8067;DHT22;4076;48.076;9.118;2023-03-31T14:20:27;14.70;42.60
8067;DHT22;4076;48.076;9.118;2023-03-31T14:26:06;14.60;42.70
8067;DHT22;4076;48.076;9.118;2023-03-31T14:31:43;14.60;43.40
8067;DHT22;4076;48.076;9.118;2023-03-31T14:34:40;14.50;43.80
8067;DHT22;4076;48.076;9.118;2023-03-31T14:37:14;14.50;44.00
8067;DHT22;4076;48.076;9.118;2023-03-31T14:39:48;14.40;44.20
8067;DHT22;4076;48.076;9.118;2023-03-31T14:42:18;14.30;44.70
8067;DHT22;4076;48.076;9.118;2023-03-31T14:44:45;14.10;46.00
8067;DHT22;4076;48.076;9.118;2023-03-31T14:47:20;13.80;49.70
8067;DHT22;4076;48.076;9.118;2023-03-31T14:49:46;13.20;51.20
8067;DHT22;4076;48.076;9.118;2023-03-31T14:52:17;12.70;53.50
8067;DHT22;4076;48.076;9.118;2023-03-31T14:54:45;12.20;53.80
8067;DHT22;4076;48.076;9.118;2023-03-31T14:57:14;11.80;57.50
8067;DHT22;4076;48.076;9.118;2023-03-31T14:59:43;11.50;58.10
8067;DHT22;4076;48.076;9.118;2023-03-31T15:02:18;11.30;62.80
8067;DHT22;4076;48.076;9.118;2023-03-31T15:04:46;11.00;65.10
8067;DHT22;4076;48.076;9.118;2023-03-31T15:07:14;10.80;72.50
8067;DHT22;4076;48.076;9.118;2023-03-31T15:09:44;10.70;71.50
8067;DHT22;4076;48.076;9.118;2023-03-31T15:12:13;10.60;80.80
8067;DHT22;4076;48.076;9.118;2023-03-31T15:14:46;10.60;85.70
8067;DHT22;4076;48.076;9.118;2023-03-31T15:17:28;10.60;82.60
8067;DHT22;4076;48.076;9.118;2023-03-31T15:19:58;10.60;85.90
8067;DHT22;4076;48.076;9.118;2023-03-31T15:22:26;10.70;86.50
8067;DHT22;4076;48.076;9.118;2023-03-31T15:24:53;10.70;91.10
8067;DHT22;4076;48.076;9.118;2023-03-31T15:27:46;10.80;92.40
8067;DHT22;4076;48.076;9.118;2023-03-31T15:30:17;11.10;95.10
8067;DHT22;4076;48.076;9.118;2023-03-31T15:32:43;11.40;94.80
8067;DHT22;4076;48.076;9.118;2023-03-31T15:37:45;11.60;92.20
8067;DHT22;4076;48.076;9.118;2023-03-31T15:40:36;11.50;91.00
8067;DHT22;4076;48.076;9.118;2023-03-31T15:43:16;11.30;90.50
8067;DHT22;4076;48.076;9.118;2023-03-31T15:51:05;10.70;90.70
8067;DHT22;4076;48.076;9.118;2023-03-31T15:53:35;10.60;91.80
8067;DHT22;4076;48.076;9.118;2023-03-31T15:56:01;10.50;92.60
8067;DHT22;4076;48.076;9.118;2023-03-31T15:58:51;10.40;93.10
8067;DHT22;4076;48.076;9.118;2023-03-31T16:01:18;10.40;94.50
8067;DHT22;4076;48.076;9.118;2023-03-31T16:03:44;10.40;96.10
8067;DHT22;4076;48.076;9.118;2023-03-31T16:06:31;10.40;97.50
8067;DHT22;4076;48.076;9.118;2023-03-31T16:09:04;10.70;99.80
8067;DHT22;4076;48.076;9.118;2023-03-31T16:11:38;11.00;99.90
8067;DHT22;4076;48.076;9.118;2023-03-31T16:14:24;11.30;99.90
8067;DHT22;4076;48.076;9.118;2023-03-31T16:17:01;11.50;97.30
8067;DHT22;4076;48.076;9.118;2023-03-31T16:19:31;11.60;94.70
8067;DHT22;4076;48.076;9.118;2023-03-31T16:22:03;11.50;93.30
8067;DHT22;4076;48.076;9.118;2023-03-31T16:24:33;11.40;92.60
8067;DHT22;4076;48.076;9.118;2023-03-31T16:27:05;11.20;91.40
8067;DHT22;4076;48.076;9.118;2023-03-31T16:29:34;11.00;91.80
8067;DHT22;4076;48.076;9.118;2023-03-31T16:32:13;10.80;92.20
8067;DHT22;4076;48.076;9.118;2023-03-31T16:37:18;10.50;92.10
8067;DHT22;4076;48.076;9.118;2023-03-31T16:39:43;10.40;93.00
8067;DHT22;4076;48.076;9.118;2023-03-31T16:42:09;10.40;92.00
8067;DHT22;4076;48.076;9.118;2023-03-31T16:44:34;10.30;92.90
8067;DHT22;4076;48.076;9.118;2023-03-31T16:47:00;10.30;93.90
8067;DHT22;4076;48.076;9.118;2023-03-31T16:49:26;10.30;93.50
8067;DHT22;4076;48.076;9.118;2023-03-31T16:51:51;10.20;94.50
8067;DHT22;4076;48.076;9.118;2023-03-31T16:54:17;10.30;94.30
8067;DHT22;4076;48.076;9.118;2023-03-31T16:56:42;10.20;94.60
8067;DHT22;4076;48.076;9.118;2023-03-31T16:59:08;10.20;95.00
8067;DHT22;4076;48.076;9.118;2023-03-31T17:01:34;10.20;95.10
8067;DHT22;4076;48.076;9.118;2023-03-31T17:04:00;10.10;95.40
8067;DHT22;4076;48.076;9.118;2023-03-31T17:06:26;10.10;95.60
8067;DHT22;4076;48.076;9.118;2023-03-31T17:08:53;10.10;95.40
8067;DHT22;4076;48.076;9.118;2023-03-31T17:11:19;10.00;96.30
8067;DHT22;4076;48.076;9.118;2023-03-31T17:13:44;9.90;97.30
8067;DHT22;4076;48.076;9.118;2023-03-31T17:16:11;9.90;98.00
8067;DHT22;4076;48.076;9.118;2023-03-31T17:18:36;9.80;98.60
8067;DHT22;4076;48.076;9.118;2023-03-31T17:21:04;9.80;99.00
8067;DHT22;4076;48.076;9.118;2023-03-31T17:23:30;9.70;99.70
8067;DHT22;4076;48.076;9.118;2023-03-31T17:25:55;9.70;99.90
8067;DHT22;4076;48.076;9.118;2023-03-31T17:28:21;9.60;99.90
8067;DHT22;4076;48.076;9.118;2023-03-31T17:30:47;9.50;99.90
8067;DHT22;4076;48.076;9.118;2023-03-31T17:33:15;9.40;99.90
8067;DHT22;4076;48.076;9.118;2023-03-31T17:35:41;9.30;99.90
8067;DHT22;4076;48.076;9.118;2023-03-31T17:38:07;9.30;99.90
8067;DHT22;4076;48.076;9.118;2023-03-31T17:40:34;9.30;99.90
8067;DHT22;4076;48.076;9.118;2023-03-31T17:43:00;9.20;99.90
8067;DHT22;4076;48.076;9.118;2023-03-31T17:45:27;9.20;99.90
8067;DHT22;4076;48.076;9.118;2023-03-31T17:47:54;9.20;99.90
8067;DHT22;4076;48.076;9.118;2023-03-31T17:50:20;9.20;99.90
8067;DHT22;4076;48.076;9.118;2023-03-31T17:52:46;9.20;99.90
8067;DHT22;4076;48.076;9.118;2023-03-31T17:55:11;9.20;99.90
8067;DHT22;4076;48.076;9.118;2023-03-31T17:57:37;9.10;99.90
8067;DHT22;4076;48.076;9.118;2023-03-31T18:00:05;9.20;99.90
8067;DHT22;4076;48.076;9.118;2023-03-31T18:02:35;9.10;99.90
8067;DHT22;4076;48.076;9.118;2023-03-31T18:05:02;9.10;99.90
8067;DHT22;4076;48.076;9.118;2023-03-31T18:07:27;9.20;99.90
8067;DHT22;4076;48.076;9.118;2023-03-31T18:09:54;9.20;99.90
8067;DHT22;4076;48.076;9.118;2023-03-31T18:12:20;9.20;99.90
8067;DHT22;4076;48.076;9.118;2023-03-31T18:14:45;9.20;99.90
8067;DHT22;4076;48.076;9.118;2023-03-31T18:17:11;9.20;99.90
8067;DHT22;4076;48.076;9.118;2023-03-31T18:19:40;9.10;99.90
8067;DHT22;4076;48.076;9.118;2023-03-31T18:22:06;9.10;99.90
8067;DHT22;4076;48.076;9.118;2023-03-31T18:24:31;9.10;99.90
8067;DHT22;4076;48.076;9.118;2023-03-31T18:26:58;9.10;99.90
8067;DHT22;4076;48.076;9.118;2023-03-31T18:29:24;9.10;99.90
8067;DHT22;4076;48.076;9.118;2023-03-31T18:31:49;9.10;99.90
8067;DHT22;4076;48.076;9.118;2023-03-31T18:34:15;9.00;99.90
8067;DHT22;4076;48.076;9.118;2023-03-31T18:36:41;8.90;99.90
8067;DHT22;4076;48.076;9.118;2023-03-31T18:39:06;8.80;99.90
8067;DHT22;4076;48.076;9.118;2023-03-31T18:41:32;8.70;99.90
8067;DHT22;4076;48.076;9.118;2023-03-31T18:43:57;8.70;99.90
8067;DHT22;4076;48.076;9.118;2023-03-31T18:46:23;8.60;99.90
8067;DHT22;4076;48.076;9.118;2023-03-31T18:48:49;8.60;99.90
8067;DHT22;4076;48.076;9.118;2023-03-31T18:51:15;8.50;99.90
8067;DHT22;4076;48.076;9.118;2023-03-31T18:53:41;8.50;99.90
8067;DHT22;4076;48.076;9.118;2023-03-31T18:56:07;8.40;99.90
8067;DHT22;4076;48.076;9.118;2023-03-31T18:58:32;8.30;99.90
8067;DHT22;4076;48.076;9.118;2023-03-31T19:00:58;8.30;99.90
8067;DHT22;4076;48.076;9.118;2023-03-31T19:03:26;8.20;99.90
8067;DHT22;4076;48.076;9.118;2023-03-31T19:05:59;8.20;99.90
8067;DHT22;4076;48.076;9.118;2023-03-31T19:08:25;8.20;99.90
8067;DHT22;4076;48.076;9.118;2023-03-31T19:10:50;8.20;99.90
8067;DHT22;4076;48.076;9.118;2023-03-31T19:13:16;8.10;99.90
8067;DHT22;4076;48.076;9.118;2023-03-31T19:15:42;8.20;99.90
8067;DHT22;4076;48.076;9.118;2023-03-31T19:18:12;8.20;99.90
8067;DHT22;4076;48.076;9.118;2023-03-31T19:20:38;8.10;99.90
8067;DHT22;4076;48.076;9.118;2023-03-31T19:23:03;8.10;99.90
8067;DHT22;4076;48.076;9.118;2023-03-31T19:25:29;8.00;99.90
8067;DHT22;4076;48.076;9.118;2023-03-31T19:27:54;8.00;99.90